Главная страница
METAR-TAF:

METAR-TAF

Аэропорты :

Триполи, Ливия

широта: 32-54N, долгота: 13-17E, высота над уровнем моря: 11 м

Текущие метеонаблюдения

Эта сводка был подготовлена 1 час и 18 минут назад, в 12:55 UTC
Ветер 8 Узел от восточно-северо-восточный
Температура 22°C
Влажность 65%
Давление 1018 hPa
Видимость: 8000 м
небольшая облачность на высоте 4000 фута

METAR: HLLM 221255Z 07008KT 8000 FEW040 22/15 Q1018

Время: 16:13 (14:13 UTC)

Прогноз

Эта сводка был подготовлена 3 часа и 13 минут назад, в 11:00 UTC
Прогноз действительный с 22-го 12 UTC до 23-го 12 UTC
Ветер 15 Узел от восточно-северо-восточный
Видимость 10 км и более
Нет облачности ниже 1500 м, и нет кучево-дождевой облачности

TAF: HLLM 221100Z 2212/2312 06015KT CAVOK

Метеонаблюдения и прогнозы для более 4000 аэропортов (сводки METAR и TAF).

Имеющиеся станции представлены на карте желтыми и красными точками.

Чтобы увидеть название станции, наведите на нее мышь.

Затем щелкните, чтобы увидеть метеонаблюдения и метеопрогнозы.

Управление картой: чтобы увеличить масштаб, щелкните зеленые кнопки с черным крестиком; чтобы уменьшить масштаб, щелкните зеленую кнопку с тире; для просмотра соседних карт щелкайте зеленые стрелки.


METAR-TAF: